sensor_id;sensor_type;location;lat;lon;timestamp;temperature;humidity
44487;DHT22;30191;50.908;6.962;2022-10-16T00:00:42;15.80;99.90
44487;DHT22;30191;50.908;6.962;2022-10-16T00:03:08;15.80;99.90
44487;DHT22;30191;50.908;6.962;2022-10-16T00:05:39;15.80;99.90
44487;DHT22;30191;50.908;6.962;2022-10-16T00:08:05;15.80;99.90
44487;DHT22;30191;50.908;6.962;2022-10-16T00:10:31;15.80;99.90
44487;DHT22;30191;50.908;6.962;2022-10-16T00:12:57;15.90;99.90
44487;DHT22;30191;50.908;6.962;2022-10-16T00:15:22;15.80;99.90
44487;DHT22;30191;50.908;6.962;2022-10-16T00:17:48;15.80;99.90
44487;DHT22;30191;50.908;6.962;2022-10-16T00:20:14;15.80;99.90
44487;DHT22;30191;50.908;6.962;2022-10-16T00:22:39;15.70;99.90
44487;DHT22;30191;50.908;6.962;2022-10-16T00:25:05;15.70;99.90
44487;DHT22;30191;50.908;6.962;2022-10-16T00:27:31;15.70;99.90
44487;DHT22;30191;50.908;6.962;2022-10-16T00:29:57;15.70;99.90
44487;DHT22;30191;50.908;6.962;2022-10-16T00:32:22;15.80;99.90
44487;DHT22;30191;50.908;6.962;2022-10-16T00:34:48;15.80;99.90
44487;DHT22;30191;50.908;6.962;2022-10-16T00:37:14;15.80;99.90
44487;DHT22;30191;50.908;6.962;2022-10-16T00:39:39;15.80;99.90
44487;DHT22;30191;50.908;6.962;2022-10-16T00:42:05;15.80;99.90
44487;DHT22;30191;50.908;6.962;2022-10-16T00:47:21;15.80;99.90
44487;DHT22;30191;50.908;6.962;2022-10-16T00:49:49;15.80;99.90
44487;DHT22;30191;50.908;6.962;2022-10-16T00:52:16;15.80;99.90
44487;DHT22;30191;50.908;6.962;2022-10-16T00:54:42;15.80;99.90
44487;DHT22;30191;50.908;6.962;2022-10-16T00:57:08;15.80;99.90
44487;DHT22;30191;50.908;6.962;2022-10-16T00:59:40;15.80;99.90
44487;DHT22;30191;50.908;6.962;2022-10-16T01:02:14;15.80;99.90
44487;DHT22;30191;50.908;6.962;2022-10-16T01:04:51;15.80;99.90
44487;DHT22;30191;50.908;6.962;2022-10-16T01:13:16;15.70;99.90
44487;DHT22;30191;50.908;6.962;2022-10-16T01:15:47;15.70;99.90
44487;DHT22;30191;50.908;6.962;2022-10-16T01:21:02;15.70;99.90
44487;DHT22;30191;50.908;6.962;2022-10-16T01:23:54;15.70;99.90
44487;DHT22;30191;50.908;6.962;2022-10-16T01:26:33;15.60;99.90
44487;DHT22;30191;50.908;6.962;2022-10-16T01:29:15;15.70;99.90
44487;DHT22;30191;50.908;6.962;2022-10-16T01:31:48;15.70;99.90
44487;DHT22;30191;50.908;6.962;2022-10-16T01:34:19;15.70;99.90
44487;DHT22;30191;50.908;6.962;2022-10-16T01:36:52;15.60;99.90
44487;DHT22;30191;50.908;6.962;2022-10-16T01:39:21;15.60;99.90
44487;DHT22;30191;50.908;6.962;2022-10-16T01:41:55;15.60;99.90
44487;DHT22;30191;50.908;6.962;2022-10-16T01:44:29;15.60;99.90
44487;DHT22;30191;50.908;6.962;2022-10-16T01:46:56;15.60;99.90
44487;DHT22;30191;50.908;6.962;2022-10-16T01:49:26;15.60;99.90
44487;DHT22;30191;50.908;6.962;2022-10-16T01:51:56;15.50;99.90
44487;DHT22;30191;50.908;6.962;2022-10-16T01:54:25;15.60;99.90
44487;DHT22;30191;50.908;6.962;2022-10-16T01:56:54;15.60;99.90
44487;DHT22;30191;50.908;6.962;2022-10-16T01:59:21;15.60;99.90
44487;DHT22;30191;50.908;6.962;2022-10-16T02:01:50;15.60;99.90
44487;DHT22;30191;50.908;6.962;2022-10-16T02:04:26;15.50;99.90
44487;DHT22;30191;50.908;6.962;2022-10-16T02:06:53;15.50;99.90
44487;DHT22;30191;50.908;6.962;2022-10-16T02:09:19;15.60;99.90
44487;DHT22;30191;50.908;6.962;2022-10-16T02:11:45;15.60;99.90
44487;DHT22;30191;50.908;6.962;2022-10-16T02:14:11;15.60;99.90
44487;DHT22;30191;50.908;6.962;2022-10-16T02:16:39;15.60;99.90
44487;DHT22;30191;50.908;6.962;2022-10-16T02:19:06;15.60;99.90
44487;DHT22;30191;50.908;6.962;2022-10-16T02:26:51;15.60;99.90
44487;DHT22;30191;50.908;6.962;2022-10-16T02:29:23;15.60;99.90
44487;DHT22;30191;50.908;6.962;2022-10-16T02:31:54;15.60;99.90
44487;DHT22;30191;50.908;6.962;2022-10-16T02:34:22;15.60;99.90
44487;DHT22;30191;50.908;6.962;2022-10-16T02:36:50;15.60;99.90
44487;DHT22;30191;50.908;6.962;2022-10-16T02:39:18;15.60;99.90
44487;DHT22;30191;50.908;6.962;2022-10-16T02:41:44;15.60;99.90
44487;DHT22;30191;50.908;6.962;2022-10-16T02:44:10;15.60;99.90
44487;DHT22;30191;50.908;6.962;2022-10-16T02:46:35;15.70;99.90
44487;DHT22;30191;50.908;6.962;2022-10-16T02:49:01;15.60;99.90
44487;DHT22;30191;50.908;6.962;2022-10-16T02:51:27;15.60;99.90
44487;DHT22;30191;50.908;6.962;2022-10-16T02:53:52;15.70;99.90
44487;DHT22;30191;50.908;6.962;2022-10-16T02:56:18;15.70;99.90
44487;DHT22;30191;50.908;6.962;2022-10-16T02:58:44;15.70;99.90
44487;DHT22;30191;50.908;6.962;2022-10-16T03:01:09;15.70;99.90
44487;DHT22;30191;50.908;6.962;2022-10-16T03:03:35;15.70;99.90
44487;DHT22;30191;50.908;6.962;2022-10-16T03:06:01;15.70;99.90
44487;DHT22;30191;50.908;6.962;2022-10-16T03:08:28;15.70;99.90
44487;DHT22;30191;50.908;6.962;2022-10-16T03:10:54;15.70;99.90
44487;DHT22;30191;50.908;6.962;2022-10-16T03:13:20;15.70;99.90
44487;DHT22;30191;50.908;6.962;2022-10-16T03:15:46;15.70;99.90
44487;DHT22;30191;50.908;6.962;2022-10-16T03:18:12;15.60;99.90
44487;DHT22;30191;50.908;6.962;2022-10-16T03:20:38;15.60;99.90
44487;DHT22;30191;50.908;6.962;2022-10-16T03:23:03;15.60;99.90
44487;DHT22;30191;50.908;6.962;2022-10-16T03:25:29;15.60;99.90
44487;DHT22;30191;50.908;6.962;2022-10-16T03:27:55;15.60;99.90
44487;DHT22;30191;50.908;6.962;2022-10-16T03:30:20;15.60;99.90
44487;DHT22;30191;50.908;6.962;2022-10-16T03:32:46;15.60;99.90
44487;DHT22;30191;50.908;6.962;2022-10-16T03:35:12;15.50;99.90
44487;DHT22;30191;50.908;6.962;2022-10-16T03:37:38;15.50;99.90
44487;DHT22;30191;50.908;6.962;2022-10-16T03:40:04;15.50;99.90
44487;DHT22;30191;50.908;6.962;2022-10-16T03:42:30;15.50;99.90
44487;DHT22;30191;50.908;6.962;2022-10-16T03:44:55;15.50;99.90
44487;DHT22;30191;50.908;6.962;2022-10-16T03:47:21;15.50;99.90
44487;DHT22;30191;50.908;6.962;2022-10-16T03:49:49;15.60;99.90
44487;DHT22;30191;50.908;6.962;2022-10-16T03:52:15;15.60;99.90
44487;DHT22;30191;50.908;6.962;2022-10-16T03:54:41;15.50;99.90
44487;DHT22;30191;50.908;6.962;2022-10-16T03:57:07;15.60;99.90
44487;DHT22;30191;50.908;6.962;2022-10-16T03:59:32;15.60;99.90
44487;DHT22;30191;50.908;6.962;2022-10-16T04:01:58;15.60;99.90
44487;DHT22;30191;50.908;6.962;2022-10-16T04:04:24;15.60;99.90
44487;DHT22;30191;50.908;6.962;2022-10-16T04:06:50;15.60;99.90
44487;DHT22;30191;50.908;6.962;2022-10-16T04:09:16;15.60;99.90
44487;DHT22;30191;50.908;6.962;2022-10-16T04:11:41;15.60;99.90
44487;DHT22;30191;50.908;6.962;2022-10-16T04:14:07;15.70;99.90
44487;DHT22;30191;50.908;6.962;2022-10-16T04:16:33;15.60;99.90
44487;DHT22;30191;50.908;6.962;2022-10-16T04:18:58;15.60;99.90
44487;DHT22;30191;50.908;6.962;2022-10-16T04:21:24;15.60;99.90
44487;DHT22;30191;50.908;6.962;2022-10-16T04:23:49;15.60;99.90
44487;DHT22;30191;50.908;6.962;2022-10-16T04:26:15;15.60;99.90
44487;DHT22;30191;50.908;6.962;2022-10-16T04:28:41;15.60;99.90
44487;DHT22;30191;50.908;6.962;2022-10-16T04:31:07;15.60;99.90
44487;DHT22;30191;50.908;6.962;2022-10-16T04:33:33;15.60;99.90
44487;DHT22;30191;50.908;6.962;2022-10-16T04:36:00;15.60;99.90
44487;DHT22;30191;50.908;6.962;2022-10-16T04:38:25;15.60;99.90
44487;DHT22;30191;50.908;6.962;2022-10-16T04:40:51;15.60;99.90
44487;DHT22;30191;50.908;6.962;2022-10-16T04:43:18;15.60;99.90
44487;DHT22;30191;50.908;6.962;2022-10-16T04:45:44;15.60;99.90
44487;DHT22;30191;50.908;6.962;2022-10-16T04:48:09;15.60;99.90
44487;DHT22;30191;50.908;6.962;2022-10-16T04:50:35;15.60;99.90
44487;DHT22;30191;50.908;6.962;2022-10-16T04:53:01;15.60;99.90
44487;DHT22;30191;50.908;6.962;2022-10-16T04:55:26;15.60;99.90
44487;DHT22;30191;50.908;6.962;2022-10-16T04:57:52;15.60;99.90
44487;DHT22;30191;50.908;6.962;2022-10-16T05:00:18;15.60;99.90
44487;DHT22;30191;50.908;6.962;2022-10-16T05:02:43;15.50;99.90
44487;DHT22;30191;50.908;6.962;2022-10-16T05:05:09;15.50;99.90
44487;DHT22;30191;50.908;6.962;2022-10-16T05:07:35;15.50;99.90
44487;DHT22;30191;50.908;6.962;2022-10-16T05:10:00;15.60;99.90
44487;DHT22;30191;50.908;6.962;2022-10-16T05:12:26;15.60;99.90
44487;DHT22;30191;50.908;6.962;2022-10-16T05:14:52;15.50;99.90
44487;DHT22;30191;50.908;6.962;2022-10-16T05:17:17;15.60;99.90
44487;DHT22;30191;50.908;6.962;2022-10-16T05:19:43;15.60;99.90
44487;DHT22;30191;50.908;6.962;2022-10-16T05:22:09;15.50;99.90
44487;DHT22;30191;50.908;6.962;2022-10-16T05:24:34;15.50;99.90
44487;DHT22;30191;50.908;6.962;2022-10-16T05:27:00;15.50;99.90
44487;DHT22;30191;50.908;6.962;2022-10-16T05:29:26;15.60;99.90
44487;DHT22;30191;50.908;6.962;2022-10-16T05:31:52;15.50;99.90
44487;DHT22;30191;50.908;6.962;2022-10-16T05:34:19;15.50;99.90
44487;DHT22;30191;50.908;6.962;2022-10-16T05:36:45;15.50;99.90
44487;DHT22;30191;50.908;6.962;2022-10-16T05:39:11;15.50;99.90
44487;DHT22;30191;50.908;6.962;2022-10-16T05:41:38;15.50;99.90
44487;DHT22;30191;50.908;6.962;2022-10-16T05:44:05;15.50;99.90
44487;DHT22;30191;50.908;6.962;2022-10-16T05:46:31;15.50;99.90
44487;DHT22;30191;50.908;6.962;2022-10-16T05:48:57;15.50;99.90
44487;DHT22;30191;50.908;6.962;2022-10-16T05:51:23;15.50;99.90
44487;DHT22;30191;50.908;6.962;2022-10-16T05:53:49;15.40;99.90
44487;DHT22;30191;50.908;6.962;2022-10-16T05:56:15;15.40;99.90
44487;DHT22;30191;50.908;6.962;2022-10-16T05:58:41;15.40;99.90
44487;DHT22;30191;50.908;6.962;2022-10-16T06:01:17;15.40;99.90
44487;DHT22;30191;50.908;6.962;2022-10-16T06:03:44;15.40;99.90
44487;DHT22;30191;50.908;6.962;2022-10-16T06:06:18;15.40;99.90
44487;DHT22;30191;50.908;6.962;2022-10-16T06:08:46;15.40;99.90
44487;DHT22;30191;50.908;6.962;2022-10-16T06:11:14;15.40;99.90
44487;DHT22;30191;50.908;6.962;2022-10-16T06:13:40;15.30;99.90
44487;DHT22;30191;50.908;6.962;2022-10-16T06:16:09;15.30;99.90
44487;DHT22;30191;50.908;6.962;2022-10-16T06:18:35;15.30;99.90
44487;DHT22;30191;50.908;6.962;2022-10-16T06:21:10;15.30;99.90
44487;DHT22;30191;50.908;6.962;2022-10-16T06:23:36;15.30;99.90
44487;DHT22;30191;50.908;6.962;2022-10-16T06:26:06;15.30;99.90
44487;DHT22;30191;50.908;6.962;2022-10-16T06:28:32;15.30;99.90
44487;DHT22;30191;50.908;6.962;2022-10-16T06:31:02;15.40;99.90
44487;DHT22;30191;50.908;6.962;2022-10-16T06:33:28;15.40;99.90
44487;DHT22;30191;50.908;6.962;2022-10-16T06:35:59;15.40;99.90
44487;DHT22;30191;50.908;6.962;2022-10-16T06:38:25;15.40;99.90
44487;DHT22;30191;50.908;6.962;2022-10-16T06:40:50;15.50;99.90
44487;DHT22;30191;50.908;6.962;2022-10-16T06:43:16;15.50;99.90
44487;DHT22;30191;50.908;6.962;2022-10-16T06:45:41;15.50;99.90
44487;DHT22;30191;50.908;6.962;2022-10-16T06:48:07;15.60;99.90
44487;DHT22;30191;50.908;6.962;2022-10-16T06:50:33;15.60;99.90
44487;DHT22;30191;50.908;6.962;2022-10-16T06:52:58;15.60;99.90
44487;DHT22;30191;50.908;6.962;2022-10-16T06:55:24;15.70;99.90
44487;DHT22;30191;50.908;6.962;2022-10-16T06:57:49;15.70;99.90
44487;DHT22;30191;50.908;6.962;2022-10-16T07:00:15;15.70;99.90
44487;DHT22;30191;50.908;6.962;2022-10-16T07:02:41;15.70;99.90
44487;DHT22;30191;50.908;6.962;2022-10-16T07:05:06;15.80;99.90
44487;DHT22;30191;50.908;6.962;2022-10-16T07:07:32;15.80;99.90
44487;DHT22;30191;50.908;6.962;2022-10-16T07:09:58;15.90;99.90
44487;DHT22;30191;50.908;6.962;2022-10-16T07:12:23;15.90;99.90
44487;DHT22;30191;50.908;6.962;2022-10-16T07:14:49;15.90;99.90
44487;DHT22;30191;50.908;6.962;2022-10-16T07:17:17;16.00;99.90
44487;DHT22;30191;50.908;6.962;2022-10-16T07:19:44;16.00;99.90
44487;DHT22;30191;50.908;6.962;2022-10-16T07:22:09;16.00;99.90
44487;DHT22;30191;50.908;6.962;2022-10-16T07:24:35;16.00;99.90
44487;DHT22;30191;50.908;6.962;2022-10-16T07:27:01;16.00;99.90
44487;DHT22;30191;50.908;6.962;2022-10-16T07:29:26;16.00;99.90
44487;DHT22;30191;50.908;6.962;2022-10-16T07:31:52;16.10;99.90
44487;DHT22;30191;50.908;6.962;2022-10-16T07:34:19;16.10;99.90
44487;DHT22;30191;50.908;6.962;2022-10-16T07:36:50;16.10;99.90
44487;DHT22;30191;50.908;6.962;2022-10-16T07:39:16;16.10;99.90
44487;DHT22;30191;50.908;6.962;2022-10-16T07:41:42;16.10;99.90
44487;DHT22;30191;50.908;6.962;2022-10-16T07:44:08;16.10;99.90
44487;DHT22;30191;50.908;6.962;2022-10-16T07:46:35;16.00;99.90
44487;DHT22;30191;50.908;6.962;2022-10-16T07:49:02;16.00;99.90
44487;DHT22;30191;50.908;6.962;2022-10-16T07:51:28;16.00;99.90
44487;DHT22;30191;50.908;6.962;2022-10-16T07:53:54;16.00;99.90
44487;DHT22;30191;50.908;6.962;2022-10-16T07:56:20;15.90;99.90
44487;DHT22;30191;50.908;6.962;2022-10-16T07:58:47;15.90;99.90
44487;DHT22;30191;50.908;6.962;2022-10-16T08:01:16;15.90;99.90
44487;DHT22;30191;50.908;6.962;2022-10-16T08:03:46;15.90;99.90
44487;DHT22;30191;50.908;6.962;2022-10-16T08:06:12;15.90;99.90
44487;DHT22;30191;50.908;6.962;2022-10-16T08:08:38;15.90;99.90
44487;DHT22;30191;50.908;6.962;2022-10-16T08:11:04;16.00;99.90
44487;DHT22;30191;50.908;6.962;2022-10-16T08:13:30;15.90;99.90
44487;DHT22;30191;50.908;6.962;2022-10-16T08:15:57;15.90;99.90
44487;DHT22;30191;50.908;6.962;2022-10-16T08:18:22;16.00;99.90
44487;DHT22;30191;50.908;6.962;2022-10-16T08:20:58;16.00;99.90
44487;DHT22;30191;50.908;6.962;2022-10-16T08:23:24;16.00;99.90
44487;DHT22;30191;50.908;6.962;2022-10-16T08:25:51;16.10;99.90
44487;DHT22;30191;50.908;6.962;2022-10-16T08:28:18;16.10;99.90
44487;DHT22;30191;50.908;6.962;2022-10-16T08:30:44;16.10;99.90
44487;DHT22;30191;50.908;6.962;2022-10-16T08:33:10;16.10;99.90
44487;DHT22;30191;50.908;6.962;2022-10-16T08:35:35;16.20;99.90
44487;DHT22;30191;50.908;6.962;2022-10-16T08:38:03;16.20;99.90
44487;DHT22;30191;50.908;6.962;2022-10-16T08:40:31;16.20;99.90
44487;DHT22;30191;50.908;6.962;2022-10-16T08:43:01;16.20;99.90
44487;DHT22;30191;50.908;6.962;2022-10-16T08:45:48;16.20;99.90
44487;DHT22;30191;50.908;6.962;2022-10-16T08:50:50;16.30;99.90
44487;DHT22;30191;50.908;6.962;2022-10-16T08:53:24;16.30;99.90
44487;DHT22;30191;50.908;6.962;2022-10-16T08:55:53;16.40;99.90
44487;DHT22;30191;50.908;6.962;2022-10-16T08:58:23;16.50;99.90
44487;DHT22;30191;50.908;6.962;2022-10-16T09:00:58;16.50;99.90
44487;DHT22;30191;50.908;6.962;2022-10-16T09:03:44;16.50;99.90
44487;DHT22;30191;50.908;6.962;2022-10-16T09:06:24;16.60;99.90
44487;DHT22;30191;50.908;6.962;2022-10-16T09:11:52;16.60;99.90
44487;DHT22;30191;50.908;6.962;2022-10-16T09:22:35;16.70;99.90
44487;DHT22;30191;50.908;6.962;2022-10-16T09:25:14;16.70;99.90
44487;DHT22;30191;50.908;6.962;2022-10-16T09:27:41;16.70;99.90
44487;DHT22;30191;50.908;6.962;2022-10-16T09:30:16;16.70;99.90
44487;DHT22;30191;50.908;6.962;2022-10-16T09:32:43;16.70;99.90
44487;DHT22;30191;50.908;6.962;2022-10-16T09:35:38;16.80;99.90
44487;DHT22;30191;50.908;6.962;2022-10-16T09:38:04;16.80;99.90
44487;DHT22;30191;50.908;6.962;2022-10-16T09:45:43;16.90;99.90
44487;DHT22;30191;50.908;6.962;2022-10-16T09:48:19;16.90;99.90
44487;DHT22;30191;50.908;6.962;2022-10-16T09:50:55;16.90;99.90
44487;DHT22;30191;50.908;6.962;2022-10-16T09:53:26;17.00;99.90
44487;DHT22;30191;50.908;6.962;2022-10-16T09:56:02;17.00;99.90
44487;DHT22;30191;50.908;6.962;2022-10-16T09:58:31;17.10;99.90
44487;DHT22;30191;50.908;6.962;2022-10-16T10:00:58;17.10;99.90
44487;DHT22;30191;50.908;6.962;2022-10-16T10:06:00;17.20;99.90
44487;DHT22;30191;50.908;6.962;2022-10-16T10:08:26;17.20;99.90
44487;DHT22;30191;50.908;6.962;2022-10-16T10:10:52;17.30;99.90
44487;DHT22;30191;50.908;6.962;2022-10-16T10:13:21;17.30;99.90
44487;DHT22;30191;50.908;6.962;2022-10-16T10:15:48;17.30;99.90
44487;DHT22;30191;50.908;6.962;2022-10-16T10:18:21;17.40;99.90
44487;DHT22;30191;50.908;6.962;2022-10-16T10:21:02;17.40;99.90
44487;DHT22;30191;50.908;6.962;2022-10-16T10:23:29;17.50;99.90
44487;DHT22;30191;50.908;6.962;2022-10-16T10:26:07;17.60;99.90
44487;DHT22;30191;50.908;6.962;2022-10-16T10:33:46;18.00;99.90
44487;DHT22;30191;50.908;6.962;2022-10-16T10:46:56;18.20;99.90
44487;DHT22;30191;50.908;6.962;2022-10-16T11:00:28;18.50;99.90
44487;DHT22;30191;50.908;6.962;2022-10-16T11:08:18;18.60;99.90
44487;DHT22;30191;50.908;6.962;2022-10-16T11:10:54;18.70;99.90
44487;DHT22;30191;50.908;6.962;2022-10-16T11:13:57;18.80;99.90
44487;DHT22;30191;50.908;6.962;2022-10-16T11:16:26;18.90;99.90
44487;DHT22;30191;50.908;6.962;2022-10-16T11:21:48;19.00;99.90
44487;DHT22;30191;50.908;6.962;2022-10-16T11:24:18;19.00;99.90
44487;DHT22;30191;50.908;6.962;2022-10-16T11:26:47;19.00;99.90
44487;DHT22;30191;50.908;6.962;2022-10-16T11:29:32;19.00;99.90
44487;DHT22;30191;50.908;6.962;2022-10-16T11:32:06;19.10;99.90
44487;DHT22;30191;50.908;6.962;2022-10-16T11:34:41;19.10;99.90
44487;DHT22;30191;50.908;6.962;2022-10-16T11:37:17;19.20;99.90
44487;DHT22;30191;50.908;6.962;2022-10-16T11:39:45;19.40;99.90
44487;DHT22;30191;50.908;6.962;2022-10-16T11:42:22;19.40;99.90
44487;DHT22;30191;50.908;6.962;2022-10-16T11:50:20;19.70;99.90
44487;DHT22;30191;50.908;6.962;2022-10-16T11:58:09;19.80;99.90
44487;DHT22;30191;50.908;6.962;2022-10-16T12:01:43;19.80;99.90
44487;DHT22;30191;50.908;6.962;2022-10-16T12:03:59;19.90;99.90
44487;DHT22;30191;50.908;6.962;2022-10-16T12:09:30;20.10;99.90
44487;DHT22;30191;50.908;6.962;2022-10-16T12:11:57;20.10;99.90
44487;DHT22;30191;50.908;6.962;2022-10-16T12:17:00;20.10;99.90
44487;DHT22;30191;50.908;6.962;2022-10-16T12:19:28;20.00;99.90
44487;DHT22;30191;50.908;6.962;2022-10-16T12:22:01;19.90;99.90
44487;DHT22;30191;50.908;6.962;2022-10-16T12:24:39;19.90;99.90
44487;DHT22;30191;50.908;6.962;2022-10-16T12:29:58;19.90;99.90
44487;DHT22;30191;50.908;6.962;2022-10-16T12:32:39;20.00;99.90
44487;DHT22;30191;50.908;6.962;2022-10-16T12:35:17;20.00;99.90
44487;DHT22;30191;50.908;6.962;2022-10-16T12:37:45;20.00;99.90
44487;DHT22;30191;50.908;6.962;2022-10-16T12:40:15;20.40;99.90
44487;DHT22;30191;50.908;6.962;2022-10-16T12:42:41;20.60;99.90
44487;DHT22;30191;50.908;6.962;2022-10-16T12:45:30;20.90;99.90
44487;DHT22;30191;50.908;6.962;2022-10-16T12:47:59;21.10;99.90
44487;DHT22;30191;50.908;6.962;2022-10-16T12:50:29;21.40;99.90
44487;DHT22;30191;50.908;6.962;2022-10-16T12:52:56;21.70;99.90
44487;DHT22;30191;50.908;6.962;2022-10-16T12:55:22;21.90;99.90
44487;DHT22;30191;50.908;6.962;2022-10-16T12:58:03;22.00;99.90
44487;DHT22;30191;50.908;6.962;2022-10-16T13:00:57;21.90;99.90
44487;DHT22;30191;50.908;6.962;2022-10-16T13:06:22;21.50;99.90
44487;DHT22;30191;50.908;6.962;2022-10-16T13:14:57;21.30;99.90
44487;DHT22;30191;50.908;6.962;2022-10-16T13:17:42;21.50;99.90
44487;DHT22;30191;50.908;6.962;2022-10-16T13:20:23;21.70;99.90
44487;DHT22;30191;50.908;6.962;2022-10-16T13:28:05;21.10;99.90
44487;DHT22;30191;50.908;6.962;2022-10-16T13:30:39;20.90;99.90
44487;DHT22;30191;50.908;6.962;2022-10-16T13:33:32;20.80;99.90
44487;DHT22;30191;50.908;6.962;2022-10-16T13:35:58;20.70;99.90
44487;DHT22;30191;50.908;6.962;2022-10-16T13:38:26;20.70;99.90
44487;DHT22;30191;50.908;6.962;2022-10-16T13:43:39;20.60;99.90
44487;DHT22;30191;50.908;6.962;2022-10-16T13:46:17;20.60;99.90
44487;DHT22;30191;50.908;6.962;2022-10-16T13:48:43;20.60;99.90
44487;DHT22;30191;50.908;6.962;2022-10-16T13:51:15;20.60;99.90
44487;DHT22;30191;50.908;6.962;2022-10-16T13:53:41;20.60;99.90
44487;DHT22;30191;50.908;6.962;2022-10-16T13:56:14;20.70;99.90
44487;DHT22;30191;50.908;6.962;2022-10-16T13:58:41;20.90;99.90
44487;DHT22;30191;50.908;6.962;2022-10-16T14:01:16;20.90;99.90
44487;DHT22;30191;50.908;6.962;2022-10-16T14:03:43;20.90;99.90
44487;DHT22;30191;50.908;6.962;2022-10-16T14:06:15;20.90;99.90
44487;DHT22;30191;50.908;6.962;2022-10-16T14:08:59;20.90;99.90
44487;DHT22;30191;50.908;6.962;2022-10-16T14:11:26;20.90;99.90
44487;DHT22;30191;50.908;6.962;2022-10-16T14:13:52;20.80;99.90
44487;DHT22;30191;50.908;6.962;2022-10-16T14:16:23;20.70;99.90
44487;DHT22;30191;50.908;6.962;2022-10-16T14:18:57;20.90;99.90
44487;DHT22;30191;50.908;6.962;2022-10-16T14:21:24;21.20;99.90
44487;DHT22;30191;50.908;6.962;2022-10-16T14:23:50;21.20;99.90
44487;DHT22;30191;50.908;6.962;2022-10-16T14:26:20;21.10;99.90
44487;DHT22;30191;50.908;6.962;2022-10-16T14:28:48;21.10;99.90
44487;DHT22;30191;50.908;6.962;2022-10-16T14:33:45;20.90;99.90
44487;DHT22;30191;50.908;6.962;2022-10-16T14:36:13;20.80;99.90
44487;DHT22;30191;50.908;6.962;2022-10-16T14:38:41;20.70;99.90
44487;DHT22;30191;50.908;6.962;2022-10-16T14:41:08;20.70;99.90
44487;DHT22;30191;50.908;6.962;2022-10-16T14:43:36;20.70;99.90
44487;DHT22;30191;50.908;6.962;2022-10-16T14:46:12;20.70;99.90
44487;DHT22;30191;50.908;6.962;2022-10-16T14:48:43;20.70;99.90
44487;DHT22;30191;50.908;6.962;2022-10-16T14:51:14;20.70;99.90
44487;DHT22;30191;50.908;6.962;2022-10-16T14:53:40;20.70;99.90
44487;DHT22;30191;50.908;6.962;2022-10-16T14:56:14;20.60;99.90
44487;DHT22;30191;50.908;6.962;2022-10-16T14:58:41;20.50;99.90
44487;DHT22;30191;50.908;6.962;2022-10-16T15:01:09;20.30;99.90
44487;DHT22;30191;50.908;6.962;2022-10-16T15:03:36;20.20;99.90
44487;DHT22;30191;50.908;6.962;2022-10-16T15:06:02;20.10;99.90
44487;DHT22;30191;50.908;6.962;2022-10-16T15:08:27;20.00;99.90
44487;DHT22;30191;50.908;6.962;2022-10-16T15:10:53;19.90;99.90
44487;DHT22;30191;50.908;6.962;2022-10-16T15:13:19;19.90;99.90
44487;DHT22;30191;50.908;6.962;2022-10-16T15:15:48;19.90;99.90
44487;DHT22;30191;50.908;6.962;2022-10-16T15:18:17;19.80;99.90
44487;DHT22;30191;50.908;6.962;2022-10-16T15:20:50;19.80;99.90
44487;DHT22;30191;50.908;6.962;2022-10-16T15:23:21;19.70;99.90
44487;DHT22;30191;50.908;6.962;2022-10-16T15:28:15;19.60;99.90
44487;DHT22;30191;50.908;6.962;2022-10-16T15:30:41;19.60;99.90
44487;DHT22;30191;50.908;6.962;2022-10-16T15:33:19;19.60;99.90
44487;DHT22;30191;50.908;6.962;2022-10-16T15:35:49;19.50;99.90
44487;DHT22;30191;50.908;6.962;2022-10-16T15:38:15;19.50;99.90
44487;DHT22;30191;50.908;6.962;2022-10-16T15:40:42;19.50;99.90
44487;DHT22;30191;50.908;6.962;2022-10-16T15:43:08;19.40;99.90
44487;DHT22;30191;50.908;6.962;2022-10-16T15:45:34;19.40;99.90
44487;DHT22;30191;50.908;6.962;2022-10-16T15:48:00;19.40;99.90
44487;DHT22;30191;50.908;6.962;2022-10-16T15:50:26;19.40;99.90
44487;DHT22;30191;50.908;6.962;2022-10-16T15:52:52;19.30;99.90
44487;DHT22;30191;50.908;6.962;2022-10-16T15:55:18;19.30;99.90
44487;DHT22;30191;50.908;6.962;2022-10-16T15:57:44;19.30;99.90
44487;DHT22;30191;50.908;6.962;2022-10-16T16:00:13;19.30;99.90
44487;DHT22;30191;50.908;6.962;2022-10-16T16:02:40;19.30;99.90
44487;DHT22;30191;50.908;6.962;2022-10-16T16:05:07;19.20;99.90
44487;DHT22;30191;50.908;6.962;2022-10-16T16:07:37;19.20;99.90
44487;DHT22;30191;50.908;6.962;2022-10-16T16:10:04;19.20;99.90
44487;DHT22;30191;50.908;6.962;2022-10-16T16:12:30;19.20;99.90
44487;DHT22;30191;50.908;6.962;2022-10-16T16:14:56;19.20;99.90
44487;DHT22;30191;50.908;6.962;2022-10-16T16:17:21;19.10;99.90
44487;DHT22;30191;50.908;6.962;2022-10-16T16:19:47;19.10;99.90
44487;DHT22;30191;50.908;6.962;2022-10-16T16:22:13;19.10;99.90
44487;DHT22;30191;50.908;6.962;2022-10-16T16:24:39;19.10;99.90
44487;DHT22;30191;50.908;6.962;2022-10-16T16:27:04;19.10;99.90
44487;DHT22;30191;50.908;6.962;2022-10-16T16:29:30;19.10;99.90
44487;DHT22;30191;50.908;6.962;2022-10-16T16:31:55;19.00;99.90
44487;DHT22;30191;50.908;6.962;2022-10-16T16:34:26;19.00;99.90
44487;DHT22;30191;50.908;6.962;2022-10-16T16:36:53;19.00;99.90
44487;DHT22;30191;50.908;6.962;2022-10-16T16:39:19;19.00;99.90
44487;DHT22;30191;50.908;6.962;2022-10-16T16:41:44;19.00;99.90
44487;DHT22;30191;50.908;6.962;2022-10-16T16:44:14;18.90;99.90
44487;DHT22;30191;50.908;6.962;2022-10-16T16:46:41;18.90;99.90
44487;DHT22;30191;50.908;6.962;2022-10-16T16:49:09;18.90;99.90
44487;DHT22;30191;50.908;6.962;2022-10-16T16:51:36;18.90;99.90
44487;DHT22;30191;50.908;6.962;2022-10-16T16:54:02;18.90;99.90
44487;DHT22;30191;50.908;6.962;2022-10-16T16:56:28;18.80;99.90
44487;DHT22;30191;50.908;6.962;2022-10-16T16:58:56;18.80;99.90
44487;DHT22;30191;50.908;6.962;2022-10-16T17:01:23;18.80;99.90
44487;DHT22;30191;50.908;6.962;2022-10-16T17:03:52;18.80;99.90
44487;DHT22;30191;50.908;6.962;2022-10-16T17:06:19;18.80;99.90
44487;DHT22;30191;50.908;6.962;2022-10-16T17:08:45;18.80;99.90
44487;DHT22;30191;50.908;6.962;2022-10-16T17:11:19;18.70;99.90
44487;DHT22;30191;50.908;6.962;2022-10-16T17:13:46;18.80;99.90
44487;DHT22;30191;50.908;6.962;2022-10-16T17:16:11;18.70;99.90
44487;DHT22;30191;50.908;6.962;2022-10-16T17:18:37;18.70;99.90
44487;DHT22;30191;50.908;6.962;2022-10-16T17:21:06;18.70;99.90
44487;DHT22;30191;50.908;6.962;2022-10-16T17:23:35;18.70;99.90
44487;DHT22;30191;50.908;6.962;2022-10-16T17:26:12;18.70;99.90
44487;DHT22;30191;50.908;6.962;2022-10-16T17:28:39;18.70;99.90
44487;DHT22;30191;50.908;6.962;2022-10-16T17:31:12;18.70;99.90
44487;DHT22;30191;50.908;6.962;2022-10-16T17:33:38;18.70;99.90